Latest Weather Observations for Cape Otway

IDV60801

Issued at 9:05 am EST Saturday 19 April 2014 (issued every 30 minutes, with the page automatically refreshed every 10 minutes)

About weather observations | Map of weather stations | Latest weather observations for VIC | Other Formats
Station Details ID: 090015 Name: CAPE OTWAY LIGHTHOUSE Lat: -38.86 Lon: 143.51 Height: 82.0 m
Data from the previous 72 hours. | See also: Recent months at Cape Otway
Date/Time
EST
Temp
°C
App
Temp
°C
Dew
Point
Rel
Hum
%
Delta-T
°C
Wind Press
QNH
hPa
Press
MSL
hPa
Rain
since 9 am
mm
Dir
 
Spd
km/h
Gust
km/h
Spd
kts
Gust
kts
19/09:00am 13.4 7.1 5.8 60 3.6 WSW 28 39 15 21 1020.7 1020.6 0.4
19/08:30am 12.5 8.8 6.2 65 3.0 SW 15 28 8 15 1020.6 - 0.4
19/08:00am 13.3 7.1 6.2 62 3.4 WSW 28 37 15 20 1020.3 - 0.4
19/07:30am 13.2 6.5 3.9 53 4.2 WSW 28 39 15 21 1020.0 - 0.4
19/07:00am 13.5 7.4 4.9 56 4.0 WSW 26 35 14 19 1019.7 - 0.4
19/06:30am 13.2 7.5 4.7 56 3.9 WSW 24 33 13 18 1019.6 - 0.4
19/06:00am 13.1 8.4 6.2 63 3.3 WSW 20 32 11 17 1019.6 1019.5 0.4
19/05:30am 13.1 7.3 4.6 56 3.9 SW 24 33 13 18 1019.4 - 0.4
19/05:00am 13.1 7.0 4.9 57 3.8 WSW 26 35 14 19 1019.3 - 0.4
19/04:30am 13.3 6.2 5.7 60 3.6 WSW 32 46 17 25 1019.3 - 0.4
19/04:00am 13.3 6.2 6.2 62 3.4 SW 33 44 18 24 1019.3 - 0.4
19/03:30am 13.3 6.0 4.3 54 4.1 SW 32 41 17 22 1019.5 - 0.4
19/03:00am 13.0 6.0 6.0 62 3.3 SSW 32 43 17 23 1019.6 1019.5 0.4
19/02:30am 13.2 5.8 6.8 65 3.1 SSW 35 43 19 23 1019.8 - 0.4
19/02:00am 13.4 6.9 4.5 55 4.1 SW 28 41 15 22 1020.0 - 0.4
19/01:30am 13.6 6.2 3.9 52 4.4 SW 32 44 17 24 1020.0 - 0.4
19/01:00am 12.9 6.7 6.2 64 3.2 WSW 28 43 15 23 1020.2 - 0.4
19/12:30am 13.3 7.2 6.4 63 3.3 SSW 28 43 15 23 1020.1 - 0.4
19/12:00am 13.7 6.6 5.4 57 3.9 WSW 32 43 17 23 1020.1 1020.0 0.4
 
Date/Time
EST
Temp
°C
App
Temp
°C
Dew
Point
Rel
Hum
%
Delta-T
°C
Wind Press
QNH
hPa
Press
MSL
hPa
Rain
since 9 am
mm
Dir
 
Spd
km/h
Gust
km/h
Spd
kts
Gust
kts
18/11:30pm 13.6 7.8 6.3 61 3.5 WSW 26 50 14 27 1020.0 - 0.4
18/11:00pm 13.8 5.9 4.2 52 4.4 SW 35 44 19 24 1020.3 - 0.4
18/10:30pm 13.7 6.1 5.9 59 3.7 SW 35 46 19 25 1020.4 - 0.4
18/10:00pm 13.8 5.9 4.2 52 4.4 SW 35 48 19 26 1020.4 - 0.4
18/09:30pm 13.9 5.7 2.9 47 4.9 WSW 35 46 19 25 1020.4 - 0.4
18/09:00pm 13.9 5.6 4.3 52 4.4 SW 37 56 20 30 1020.0 1019.9 0.4
18/08:51pm 14.0 5.7 4.2 51 4.5 SW 37 56 20 30 1020.0 - 0.4
18/08:50pm 14.0 5.7 4.2 51 4.5 SW 37 56 20 30 1020.0 - 0.4
18/08:30pm 13.6 5.9 5.3 57 3.9 SW 35 52 19 28 1019.9 - 0.4
18/08:20pm 13.8 6.7 6.5 61 3.5 SW 33 52 18 28 1019.8 - 0.4
18/08:19pm 13.8 6.7 6.5 61 3.5 SW 33 52 18 28 1019.8 - 0.4
18/08:00pm 13.8 5.4 5.5 57 3.9 SW 39 50 21 27 1019.8 - 0.4
18/07:30pm 13.9 5.2 6.2 59 3.7 SW 41 54 22 29 1019.6 - 0.4
18/07:00pm 14.1 4.8 5.1 54 4.2 SW 43 52 23 28 1019.4 - 0.4
18/06:30pm 13.9 5.1 5.7 57 3.9 SW 41 57 22 31 1019.3 - 0.4
18/06:00pm 13.9 5.0 6.7 62 3.5 SW 43 57 23 31 1019.0 1018.9 0.4
18/05:30pm 14.1 5.3 7.4 64 3.3 SW 43 54 23 29 1018.8 - 0.4
18/05:00pm 14.2 6.8 6.8 61 3.6 WSW 35 48 19 26 1018.6 - 0.4
18/04:30pm 14.3 6.5 6.7 60 3.7 WSW 37 52 20 28 1018.4 - 0.4
18/04:04pm 15.2 8.4 7.8 61 3.7 WSW 33 52 18 28 1018.0 - 0.4
18/04:03pm 15.2 8.4 7.8 61 3.7 WSW 33 52 18 28 1018.0 - 0.4
18/04:00pm 14.8 7.4 6.6 58 4.0 WSW 35 50 19 27 1018.0 - 0.4
18/03:30pm 15.3 7.5 6.5 55 4.3 WSW 37 50 20 27 1017.8 - 0.4
18/03:00pm 15.0 6.5 5.3 52 4.6 WSW 39 56 21 30 1017.7 1017.6 0.4
18/02:30pm 14.2 6.6 7.5 64 3.3 WSW 37 56 20 30 1017.6 - 0.4
18/02:24pm 14.8 7.5 7.3 61 3.7 WSW 35 54 19 29 1017.5 - 0.4
18/02:23pm 14.8 7.5 7.3 61 3.7 WSW 35 54 19 29 1017.5 - 0.4
18/02:00pm 15.3 8.2 6.5 55 4.3 WSW 33 46 18 25 1017.4 - 0.4
18/01:30pm 15.4 7.8 5.8 52 4.6 WSW 35 48 19 26 1017.2 - 0.4
18/01:00pm 15.3 7.5 6.5 55 4.3 WSW 37 52 20 28 1017.2 - 0.4
18/12:30pm 15.1 6.0 7.0 58 4.0 SW 44 57 24 31 1017.1 - 0.4
18/12:00pm 14.7 5.9 7.2 61 3.7 SW 43 57 23 31 1017.0 1016.9 0.4
18/11:53am 14.0 6.2 8.2 68 2.9 SW 39 56 21 30 1017.0 - 0.2
18/11:48am 13.7 8.2 9.2 74 2.3 W 28 37 15 20 1017.1 - 0.2
18/11:30am 13.5 5.6 9.2 75 2.2 WSW 41 63 22 34 1016.9 - 0.2
18/11:26am 14.8 7.9 8.7 67 3.1 WSW 35 59 19 32 1016.8 - 0.2
18/11:25am 14.8 7.9 8.7 67 3.1 WSW 35 59 19 32 1016.8 - 0.2
18/11:00am 15.1 7.0 7.2 59 3.9 SW 39 56 21 30 1016.7 - 0.2
18/10:32am 14.4 5.0 7.1 61 3.6 SW 46 65 25 35 1016.3 - 0.2
18/10:30am 14.3 4.4 6.7 60 3.7 SW 48 65 26 35 1016.3 - 0.2
18/10:00am 14.4 6.1 10.0 75 2.3 SW 44 56 24 30 1016.1 - 0.2
18/09:30am 13.2 5.1 10.7 85 1.3 SW 44 70 24 38 1016.1 - 0.0
18/09:27am 13.7 7.0 11.1 84 1.4 WSW 37 70 20 38 1016.0 - 0.0
18/09:26am 13.7 7.0 11.1 84 1.4 WSW 37 70 20 38 1016.0 - 0.0
18/09:14am 13.7 8.1 11.5 86 1.2 SW 32 50 17 27 1015.9 - 0.0
18/09:13am 13.7 8.1 11.5 86 1.2 SW 32 50 17 27 1015.9 - 0.0
18/09:00am 13.0 6.3 10.9 87 1.1 WSW 37 50 20 27 1015.9 1015.8 4.2
18/08:31am 13.0 6.6 11.9 93 0.6 WSW 37 56 20 30 1015.4 - 3.4
18/08:30am 13.0 6.1 11.7 92 0.7 WSW 39 56 21 30 1015.3 - 3.4
18/08:03am 13.6 5.3 12.5 93 0.6 SW 48 67 26 36 1014.4 - 2.2
18/08:02am 13.6 5.3 12.5 93 0.6 SW 48 67 26 36 1014.4 - 2.2
18/08:00am 13.6 6.2 12.3 92 0.7 SW 43 54 23 29 1014.4 - 2.0
18/07:58am 13.6 6.5 12.3 92 0.7 SW 41 52 22 28 1014.4 - 1.8
18/07:57am 13.6 6.5 12.3 92 0.7 SW 41 52 22 28 1014.4 - 1.8
18/07:30am 14.9 9.8 11.8 82 1.7 NW 30 46 16 25 1013.2 - 0.4
18/07:18am 14.8 10.0 11.8 82 1.6 NW 28 46 15 25 1013.1 - 0.4
18/07:00am 14.7 10.0 11.9 83 1.5 NW 28 44 15 24 1013.1 - 0.4
18/06:30am 14.0 10.4 12.0 88 1.1 NW 22 37 12 20 1013.3 - 0.4
18/06:00am 13.6 10.1 12.1 91 0.8 NNW 22 30 12 16 1013.4 1013.3 0.4
18/05:30am 13.5 8.5 12.2 92 0.7 NW 30 44 16 24 1013.7 - 0.4
18/05:00am 15.1 9.0 10.6 74 2.4 NW 33 56 18 30 1013.6 - 0.0
18/04:56am 15.3 8.8 10.4 72 2.6 NW 35 54 19 29 1013.6 - 0.0
18/04:55am 15.2 9.1 10.5 73 2.5 NW 33 50 18 27 1013.6 - 0.0
18/04:54am 15.2 10.1 10.5 73 2.5 NW 28 50 15 27 1013.6 - 0.0
18/04:30am 14.2 10.3 9.5 73 2.4 NNW 20 30 11 16 1013.3 - 0.0
18/04:00am 13.3 9.6 9.6 78 1.9 N 19 26 10 14 1013.8 - 0.0
18/03:30am 13.3 9.5 9.8 79 1.8 N 20 26 11 14 1014.1 - 0.0
18/03:00am 13.3 9.7 9.8 79 1.8 NNW 19 24 10 13 1014.7 1014.6 0.0
18/02:30am 13.1 9.4 10.0 81 1.6 N 20 30 11 16 1014.7 - 0.0
18/02:00am 12.8 9.7 10.3 85 1.3 NNW 17 22 9 12 1015.1 - 0.0
18/01:30am 12.6 10.4 10.7 88 1.0 NW 13 19 7 10 1015.7 - 0.0
18/01:00am 12.0 9.7 10.5 90 0.8 NNW 13 15 7 8 1016.1 - 0.0
18/12:30am 12.0 10.2 10.7 92 0.7 NW 11 11 6 6 1016.4 - 0.0
18/12:00am 12.6 10.5 11.1 91 0.8 NNW 13 13 7 7 1016.9 1016.8 0.0
 
Date/Time
EST
Temp
°C
App
Temp
°C
Dew
Point
Rel
Hum
%
Delta-T
°C
Wind Press
QNH
hPa
Press
MSL
hPa
Rain
since 9 am
mm
Dir
 
Spd
km/h
Gust
km/h
Spd
kts
Gust
kts
17/11:30pm 13.0 11.0 11.5 91 0.8 NNW 13 15 7 8 1017.4 - 0.0
17/11:00pm 12.9 11.0 11.8 93 0.6 NNW 13 17 7 9 1017.7 - 0.0
17/10:30pm 12.8 11.2 11.5 92 0.7 NNW 11 15 6 8 1018.0 - 0.0
17/10:00pm 12.8 11.2 11.5 92 0.7 N 11 13 6 7 1018.0 - 0.0
17/09:30pm 13.7 11.9 12.2 91 0.8 NNE 13 15 7 8 1018.0 - 0.0
17/09:00pm 13.4 12.0 12.1 92 0.7 N 11 13 6 7 1018.1 1018.0 0.0
17/08:30pm 13.8 12.4 12.1 89 0.9 N 11 11 6 6 1018.1 - 0.0
17/08:00pm 14.6 14.1 12.8 89 1.0 NNW 7 9 4 5 1018.3 - 0.0
17/07:30pm 15.5 15.3 13.5 88 1.1 WNW 7 11 4 6 1018.5 - 0.0
17/07:00pm 16.2 15.4 14.1 87 1.2 W 11 15 6 8 1018.5 - 0.0
17/06:30pm 16.3 15.7 13.5 83 1.6 WNW 9 13 5 7 1018.5 - 0.0
17/06:00pm 15.9 16.8 12.8 82 1.7 CALM 0 0 0 0 1018.5 1018.4 0.0
17/05:30pm 16.5 16.7 12.9 79 2.0 WNW 4 7 2 4 1018.6 - 0.0
17/05:00pm 16.8 17.6 12.7 77 2.3 CALM 0 0 0 0 1018.5 - 0.0
17/04:30pm 16.9 17.6 12.2 74 2.6 CALM 0 6 0 3 1018.6 - 0.0
17/04:00pm 17.7 17.5 11.9 69 3.2 WNW 4 7 2 4 1018.7 - 0.0
17/03:30pm 17.3 18.0 12.2 72 2.8 CALM 0 0 0 0 1018.6 - 0.0
17/03:00pm 17.9 18.8 12.9 72 2.8 CALM 0 6 0 3 1018.7 1018.6 0.0
17/02:30pm 17.5 16.3 12.7 73 2.7 ESE 11 13 6 7 1018.8 - 0.0
17/02:00pm 17.7 16.5 12.9 73 2.7 ESE 11 15 6 8 1018.8 - 0.0
17/01:30pm 18.0 16.8 12.8 71 2.9 E 11 15 6 8 1019.0 - 0.0
17/01:00pm 17.7 16.3 13.3 75 2.5 ESE 13 15 7 8 1019.4 - 0.0
17/12:30pm 17.3 16.5 12.8 75 2.5 ESE 9 9 5 5 1019.9 - 0.0
17/12:00pm 17.5 16.6 12.6 73 2.7 ESE 9 13 5 7 1020.0 1019.9 0.0
17/11:30am 17.4 16.3 12.1 71 2.9 ESE 9 11 5 6 1020.2 - 0.0
17/11:00am 17.4 16.9 12.1 71 2.9 ESE 6 9 3 5 1020.5 - 0.0
17/10:30am 17.7 18.4 12.1 69 3.1 CALM 0 6 0 3 1020.5 - 0.0
17/10:00am 17.2 16.9 11.3 68 3.2 ESE 4 7 2 4 1020.6 - 0.0
17/09:30am 16.9 16.8 10.9 67 3.2 ENE 2 7 1 4 1020.7 - 0.0
17/09:00am 17.3 16.2 10.6 64 3.6 NNE 7 9 4 5 1020.7 1020.6 0.0
17/08:30am 15.9 16.3 11.2 73 2.5 CALM 0 0 0 0 1020.5 - 0.0
17/08:00am 13.4 11.5 9.1 75 2.2 NNW 9 11 5 6 1020.3 - 0.0
17/07:30am 11.1 8.7 8.5 84 1.3 NNW 11 13 6 7 1020.1 - 0.0
17/07:00am 10.3 7.8 8.0 86 1.1 NNW 11 13 6 7 1019.8 - 0.0
17/06:30am 11.2 8.3 8.1 81 1.5 NNW 13 15 7 8 1019.7 - 0.0
17/06:00am 11.4 8.5 8.1 80 1.6 NNW 13 15 7 8 1019.7 1019.6 0.0
17/05:30am 11.3 8.4 8.0 80 1.6 NNW 13 15 7 8 1019.6 - 0.0
17/05:00am 11.6 8.3 7.9 78 1.8 NNW 15 17 8 9 1019.6 - 0.0
17/04:30am 11.7 8.4 8.0 78 1.8 NNW 15 17 8 9 1019.5 - 0.0
17/04:00am 11.7 8.1 8.2 79 1.7 NNW 17 17 9 9 1019.4 - 0.0
17/03:30am 12.0 8.5 8.8 81 1.6 NNW 17 19 9 10 1019.3 - 0.0
17/03:00am 12.1 8.6 8.9 81 1.6 NNW 17 19 9 10 1019.3 1019.2 0.0
17/02:30am 11.8 8.2 8.4 80 1.7 NNW 17 19 9 10 1019.4 - 0.0
17/02:00am 11.9 8.8 8.9 82 1.5 NNW 15 17 8 9 1019.7 - 0.0
17/01:30am 11.7 8.5 8.5 81 1.6 NNW 15 17 8 9 1019.8 - 0.0
17/01:00am 11.8 8.6 8.4 80 1.7 NNW 15 17 8 9 1019.6 - 0.0
17/12:30am 11.9 8.6 8.2 78 1.8 NNW 15 17 8 9 1019.5 - 0.0
17/12:00am 12.1 8.4 8.0 76 2.0 N 17 19 9 10 1019.4 1019.3 0.0
 
Date/Time
EST
Temp
°C
App
Temp
°C
Dew
Point
Rel
Hum
%
Delta-T
°C
Wind Press
QNH
hPa
Press
MSL
hPa
Rain
since 9 am
mm
Dir
 
Spd
km/h
Gust
km/h
Spd
kts
Gust
kts
16/11:30pm 11.9 8.4 8.7 81 1.6 N 17 19 9 10 1019.6 - 0.0
16/11:00pm 11.7 8.7 9.3 85 1.2 N 15 17 8 9 1019.8 - 0.0
16/10:30pm 11.7 10.0 9.7 87 1.0 N 9 11 5 6 1019.9 - 0.0
16/10:00pm 12.1 10.0 9.9 86 1.1 N 11 13 6 7 1019.9 - 0.0
16/09:30pm 12.6 11.1 10.5 87 1.1 N 9 11 5 6 1019.8 - 0.0
16/09:00pm 12.8 11.3 10.5 86 1.2 NNE 9 11 5 6 1019.6 1019.5 0.0
16/08:30pm 13.1 10.8 10.6 85 1.3 NNE 13 13 7 7 1019.5 - 0.0
16/08:00pm 12.9 11.4 10.6 86 1.2 NNE 9 11 5 6 1019.3 - 0.0
16/07:30pm 13.1 11.7 11.0 87 1.1 NNE 9 11 5 6 1019.2 - 0.0
16/07:00pm 12.8 11.7 10.5 86 1.2 N 7 11 4 6 1019.4 - 0.0
16/06:30pm 13.0 13.2 10.5 85 1.3 CALM 0 0 0 0 1019.3 - 0.0
16/06:00pm 14.6 15.0 11.4 81 1.7 CALM 0 0 0 0 1019.4 1019.3 0.0
16/05:30pm 15.8 15.1 11.3 74 2.4 WNW 6 7 3 4 1019.4 - 0.0
16/05:00pm 15.8 15.2 11.7 76 2.2 W 6 9 3 5 1019.4 - 0.0
16/04:30pm 16.0 15.4 12.2 78 2.1 NW 7 9 4 5 1019.2 - 0.0
16/04:00pm 16.1 15.1 12.3 78 2.1 WNW 9 13 5 7 1019.3 - 0.0
16/03:30pm 16.5 16.1 12.3 76 2.3 NNW 6 9 3 5 1019.3 - 0.0
16/03:00pm 16.6 16.3 12.6 77 2.2 SSE 6 9 3 5 1019.2 1019.1 0.0
16/02:30pm 16.9 16.5 13.0 78 2.2 SE 7 15 4 8 1019.1 - 0.0
16/02:00pm 17.0 15.8 12.7 76 2.4 ESE 11 17 6 9 1018.9 - 0.0
16/01:30pm 17.6 16.8 12.8 73 2.7 ENE 9 20 5 11 1019.0 - 0.0
16/01:00pm 16.7 15.0 12.3 75 2.4 ENE 13 20 7 11 1019.1 - 0.0
16/12:30pm 17.1 17.0 12.2 73 2.7 N 4 7 2 4 1019.6 - 0.0
16/12:00pm 16.9 16.1 11.6 71 2.9 NW 7 15 4 8 1020.2 1020.1 0.0
16/11:30am 17.5 16.0 11.8 69 3.1 NE 11 19 6 10 1020.3 - 0.0
16/11:00am 16.8 14.3 11.2 69 3.0 NE 15 20 8 11 1020.4 - 0.0
16/10:30am 17.1 14.6 11.2 68 3.2 NE 15 24 8 13 1020.5 - 0.0
16/10:00am 17.1 14.9 12.2 73 2.7 NE 15 24 8 13 1020.5 - 0.0
16/09:30am 16.4 14.9 12.0 75 2.4 ENE 11 19 6 10 1020.7 - 0.0

Other Formats:

Comma delimited format used in spreadsheet applications
http://www.bom.gov.au/fwo/IDV60801/IDV60801.94842.axf

JavaScript Object Notation format (JSON) in row-major order
http://www.bom.gov.au/fwo/IDV60801/IDV60801.94842.json